CheckWX is a tool to help pilots better visualize weather data.  It is not intended as a substitute for an official pre-flight weather briefing.

10:56:00 UTC

SBIL METAR
Bahia - Jorge Amado Airport
Ilhéus, Brazil
Current

56 mins ago

SBIL 191000Z 25003KT 9999 TS VCSH FEW020 FEW030CB SCT045 24/24 Q1013
Observed
Feb-19 @ 10:00 UTC
Wind
  • 250° at 3 KTS
Visibility
10,000+ meters
Flight Rules
VFR
Conditions
Thunderstorm
Cloud Levels
  • Few at 2,000' AGL
  • Few at 3,000' AGL
  • Scattered at 4,500' AGL
Temperature
24°C / 75°F
Dewpoint
24°C / 75°F
Humidity
100%
Altimeter
29.91" Hg
Pressure
1012.92 hPa
Previous

2 hours ago

SBIL 190900Z 17003KT 9999 -TSRA SCT020 FEW030CB BKN070 24/23 Q1012
Observed
Feb-19 @ 09:00 UTC
Wind
  • 170° at 3 KTS
Visibility
10,000+ meters
Flight Rules
VFR
Conditions
Light Thunderstorm, Light Rain
Cloud Levels
  • Scattered at 2,000' AGL
  • Few at 3,000' AGL
  • Broken at 7,000' AGL
Temperature
24°C / 75°F
Dewpoint
23°C / 73°F
Humidity
94%
Altimeter
29.88" Hg
Pressure
1011.92 hPa
Previous

3 hours ago

SBIL 190800Z 13023KT 5000 TSRA BKN025 FEW030CB BKN070 25/25 Q1012
Observed
Feb-19 @ 08:00 UTC
Wind
  • 130° at 23 KTS
Visibility
5,000 meters
Flight Rules
MVFR
Conditions
Thunderstorm, Rain
Cloud Levels
  • Broken at 2,500' AGL
  • Few at 3,000' AGL
  • Broken at 7,000' AGL
Temperature
25°C / 77°F
Dewpoint
25°C / 77°F
Humidity
100%
Altimeter
29.88" Hg
Pressure
1011.92 hPa